sensor_id;sensor_type;location;lat;lon;timestamp;pressure;altitude;pressure_sealevel;temperature;humidity
13593;BME280;6867;50.998;4.250;2022-12-07T00:01:17;101638.13;;;6.23;77.16
13593;BME280;6867;50.998;4.250;2022-12-07T00:03:47;101625.38;;;6.17;77.02
13593;BME280;6867;50.998;4.250;2022-12-07T00:06:15;101630.97;;;6.06;77.34
13593;BME280;6867;50.998;4.250;2022-12-07T00:08:43;101624.69;;;6.07;77.30
13593;BME280;6867;50.998;4.250;2022-12-07T00:11:12;101620.78;;;6.01;77.70
13593;BME280;6867;50.998;4.250;2022-12-07T00:13:39;101614.25;;;5.95;77.42
13593;BME280;6867;50.998;4.250;2022-12-07T00:16:08;101615.25;;;5.94;77.76
13593;BME280;6867;50.998;4.250;2022-12-07T00:18:35;101621.88;;;5.90;77.98
13593;BME280;6867;50.998;4.250;2022-12-07T00:21:05;101635.31;;;5.63;78.26
13593;BME280;6867;50.998;4.250;2022-12-07T00:23:33;101625.66;;;5.62;78.30
13593;BME280;6867;50.998;4.250;2022-12-07T00:26:04;101643.53;;;5.52;78.83
13593;BME280;6867;50.998;4.250;2022-12-07T00:28:31;101640.66;;;5.45;79.73
13593;BME280;6867;50.998;4.250;2022-12-07T00:31:01;101657.84;;;5.50;80.26
13593;BME280;6867;50.998;4.250;2022-12-07T00:33:27;101638.34;;;5.68;79.48
13593;BME280;6867;50.998;4.250;2022-12-07T00:35:55;101628.91;;;5.73;79.34
13593;BME280;6867;50.998;4.250;2022-12-07T00:38:24;101638.03;;;5.71;79.45
13593;BME280;6867;50.998;4.250;2022-12-07T00:40:55;101627.75;;;5.76;79.56
13593;BME280;6867;50.998;4.250;2022-12-07T00:43:22;101631.97;;;5.61;79.37
13593;BME280;6867;50.998;4.250;2022-12-07T00:45:48;101632.34;;;5.66;79.70
13593;BME280;6867;50.998;4.250;2022-12-07T00:48:15;101617.66;;;5.62;79.68
13593;BME280;6867;50.998;4.250;2022-12-07T00:50:42;101641.19;;;5.48;80.65
13593;BME280;6867;50.998;4.250;2022-12-07T00:53:09;101633.34;;;5.47;80.61
13593;BME280;6867;50.998;4.250;2022-12-07T00:55:37;101630.84;;;5.45;80.68
13593;BME280;6867;50.998;4.250;2022-12-07T00:58:04;101634.78;;;5.59;80.59
13593;BME280;6867;50.998;4.250;2022-12-07T01:00:31;101624.00;;;5.87;79.34
13593;BME280;6867;50.998;4.250;2022-12-07T01:02:59;101615.47;;;5.83;79.14
13593;BME280;6867;50.998;4.250;2022-12-07T01:05:25;101612.03;;;5.91;78.75
13593;BME280;6867;50.998;4.250;2022-12-07T01:07:52;101607.25;;;5.94;78.42
13593;BME280;6867;50.998;4.250;2022-12-07T01:10:19;101609.34;;;6.09;79.12
13593;BME280;6867;50.998;4.250;2022-12-07T01:12:47;101616.59;;;6.24;78.70
13593;BME280;6867;50.998;4.250;2022-12-07T01:15:13;101623.56;;;6.17;79.57
13593;BME280;6867;50.998;4.250;2022-12-07T01:17:40;101631.03;;;6.40;79.87
13593;BME280;6867;50.998;4.250;2022-12-07T01:20:07;101630.59;;;6.53;79.21
13593;BME280;6867;50.998;4.250;2022-12-07T01:22:36;101636.94;;;6.60;79.02
13593;BME280;6867;50.998;4.250;2022-12-07T01:25:04;101633.69;;;6.74;79.38
13593;BME280;6867;50.998;4.250;2022-12-07T01:27:32;101650.25;;;6.86;79.49
13593;BME280;6867;50.998;4.250;2022-12-07T01:30:00;101660.09;;;6.93;79.85
13593;BME280;6867;50.998;4.250;2022-12-07T01:32:27;101656.09;;;6.97;79.60
13593;BME280;6867;50.998;4.250;2022-12-07T01:34:53;101648.91;;;6.98;80.10
13593;BME280;6867;50.998;4.250;2022-12-07T01:37:20;101655.84;;;7.17;79.72
13593;BME280;6867;50.998;4.250;2022-12-07T01:39:48;101650.69;;;7.23;79.87
13593;BME280;6867;50.998;4.250;2022-12-07T01:42:15;101641.34;;;7.28;79.40
13593;BME280;6867;50.998;4.250;2022-12-07T01:47:52;101643.16;;;7.35;79.57
13593;BME280;6867;50.998;4.250;2022-12-07T01:50:20;101632.63;;;7.26;79.14
13593;BME280;6867;50.998;4.250;2022-12-07T01:52:49;101625.44;;;7.18;79.24
13593;BME280;6867;50.998;4.250;2022-12-07T01:55:17;101619.25;;;7.17;78.51
13593;BME280;6867;50.998;4.250;2022-12-07T01:57:47;101645.97;;;7.17;78.87
13593;BME280;6867;50.998;4.250;2022-12-07T02:00:14;101664.38;;;7.20;79.60
13593;BME280;6867;50.998;4.250;2022-12-07T02:02:46;101655.19;;;7.31;79.13
13593;BME280;6867;50.998;4.250;2022-12-07T02:05:17;101644.66;;;7.21;79.29
13593;BME280;6867;50.998;4.250;2022-12-07T02:07:44;101636.47;;;7.39;79.58
13593;BME280;6867;50.998;4.250;2022-12-07T02:10:13;101636.34;;;7.41;79.39
13593;BME280;6867;50.998;4.250;2022-12-07T02:12:40;101635.59;;;7.14;79.70
13593;BME280;6867;50.998;4.250;2022-12-07T02:15:08;101636.91;;;6.86;80.00
13593;BME280;6867;50.998;4.250;2022-12-07T02:17:42;101640.69;;;6.75;80.26
13593;BME280;6867;50.998;4.250;2022-12-07T02:20:18;101631.94;;;6.57;79.91
13593;BME280;6867;50.998;4.250;2022-12-07T02:26:01;101630.50;;;6.36;79.63
13593;BME280;6867;50.998;4.250;2022-12-07T02:28:37;101609.81;;;6.38;79.17
13593;BME280;6867;50.998;4.250;2022-12-07T02:31:12;101609.50;;;6.41;79.24
13593;BME280;6867;50.998;4.250;2022-12-07T02:33:43;101609.50;;;6.41;78.82
13593;BME280;6867;50.998;4.250;2022-12-07T02:36:15;101602.16;;;6.43;78.70
13593;BME280;6867;50.998;4.250;2022-12-07T02:38:48;101614.53;;;6.44;78.92
13593;BME280;6867;50.998;4.250;2022-12-07T02:41:22;101616.81;;;6.39;78.79
13593;BME280;6867;50.998;4.250;2022-12-07T02:43:53;101610.50;;;6.40;79.25
13593;BME280;6867;50.998;4.250;2022-12-07T02:46:26;101605.00;;;6.42;78.77
13593;BME280;6867;50.998;4.250;2022-12-07T02:48:54;101621.19;;;6.40;79.81
13593;BME280;6867;50.998;4.250;2022-12-07T02:51:22;101629.91;;;6.51;79.69
13593;BME280;6867;50.998;4.250;2022-12-07T02:53:49;101635.94;;;6.53;80.34
13593;BME280;6867;50.998;4.250;2022-12-07T02:56:21;101635.31;;;6.67;80.25
13593;BME280;6867;50.998;4.250;2022-12-07T02:59:00;101635.06;;;6.86;79.92
13593;BME280;6867;50.998;4.250;2022-12-07T03:01:35;101632.91;;;6.98;79.42
13593;BME280;6867;50.998;4.250;2022-12-07T03:04:18;101634.25;;;7.02;79.91
13593;BME280;6867;50.998;4.250;2022-12-07T03:06:50;101628.09;;;7.10;79.53
13593;BME280;6867;50.998;4.250;2022-12-07T03:09:21;101617.09;;;7.13;79.66
13593;BME280;6867;50.998;4.250;2022-12-07T03:11:54;101618.75;;;7.14;79.40
13593;BME280;6867;50.998;4.250;2022-12-07T03:14:30;101608.72;;;7.08;79.21
13593;BME280;6867;50.998;4.250;2022-12-07T03:17:05;101612.88;;;7.02;79.28
13593;BME280;6867;50.998;4.250;2022-12-07T03:19:36;101614.19;;;6.98;79.29
13593;BME280;6867;50.998;4.250;2022-12-07T03:22:06;101613.38;;;6.97;79.04
13593;BME280;6867;50.998;4.250;2022-12-07T03:24:37;101600.84;;;6.90;78.65
13593;BME280;6867;50.998;4.250;2022-12-07T03:27:08;101603.97;;;6.85;78.61
13593;BME280;6867;50.998;4.250;2022-12-07T03:29:39;101594.28;;;6.76;78.57
13593;BME280;6867;50.998;4.250;2022-12-07T03:32:14;101590.63;;;6.69;78.15
13593;BME280;6867;50.998;4.250;2022-12-07T03:34:46;101584.38;;;6.60;78.66
13593;BME280;6867;50.998;4.250;2022-12-07T03:37:18;101591.72;;;6.58;78.89
13593;BME280;6867;50.998;4.250;2022-12-07T03:39:54;101596.91;;;6.60;78.73
13593;BME280;6867;50.998;4.250;2022-12-07T03:42:24;101578.84;;;6.45;78.56
13593;BME280;6867;50.998;4.250;2022-12-07T03:44:52;101572.47;;;6.38;78.61
13593;BME280;6867;50.998;4.250;2022-12-07T03:47:26;101566.59;;;6.35;78.24
13593;BME280;6867;50.998;4.250;2022-12-07T03:49:58;101566.75;;;6.25;78.33
13593;BME280;6867;50.998;4.250;2022-12-07T03:52:30;101563.03;;;6.18;78.10
13593;BME280;6867;50.998;4.250;2022-12-07T03:55:03;101561.66;;;6.14;78.22
13593;BME280;6867;50.998;4.250;2022-12-07T03:57:33;101561.16;;;6.10;78.49
13593;BME280;6867;50.998;4.250;2022-12-07T04:00:03;101562.00;;;6.11;78.67
13593;BME280;6867;50.998;4.250;2022-12-07T04:02:32;101563.56;;;6.21;78.51
13593;BME280;6867;50.998;4.250;2022-12-07T04:04:59;101569.63;;;6.32;78.60
13593;BME280;6867;50.998;4.250;2022-12-07T04:07:26;101584.50;;;6.42;79.16
13593;BME280;6867;50.998;4.250;2022-12-07T04:09:52;101598.88;;;6.49;79.43
13593;BME280;6867;50.998;4.250;2022-12-07T04:12:20;101620.28;;;6.66;79.92
13593;BME280;6867;50.998;4.250;2022-12-07T04:14:47;101621.13;;;6.66;79.60
13593;BME280;6867;50.998;4.250;2022-12-07T04:17:13;101613.81;;;6.77;79.42
13593;BME280;6867;50.998;4.250;2022-12-07T04:19:41;101616.47;;;6.77;80.02
13593;BME280;6867;50.998;4.250;2022-12-07T04:22:08;101607.97;;;6.81;79.73
13593;BME280;6867;50.998;4.250;2022-12-07T04:24:35;101598.63;;;6.85;79.36
13593;BME280;6867;50.998;4.250;2022-12-07T04:27:02;101586.94;;;6.70;79.09
13593;BME280;6867;50.998;4.250;2022-12-07T04:29:28;101571.88;;;6.53;79.02
13593;BME280;6867;50.998;4.250;2022-12-07T04:31:55;101568.09;;;6.29;79.27
13593;BME280;6867;50.998;4.250;2022-12-07T04:34:22;101564.25;;;6.23;78.70
13593;BME280;6867;50.998;4.250;2022-12-07T04:36:50;101570.16;;;6.09;78.66
13593;BME280;6867;50.998;4.250;2022-12-07T04:39:22;101568.28;;;6.02;78.35
13593;BME280;6867;50.998;4.250;2022-12-07T04:41:49;101565.88;;;5.90;78.76
13593;BME280;6867;50.998;4.250;2022-12-07T04:44:16;101571.16;;;5.82;78.98
13593;BME280;6867;50.998;4.250;2022-12-07T04:46:44;101574.34;;;5.86;78.33
13593;BME280;6867;50.998;4.250;2022-12-07T04:49:11;101578.97;;;5.84;78.19
13593;BME280;6867;50.998;4.250;2022-12-07T04:51:38;101574.94;;;5.80;78.71
13593;BME280;6867;50.998;4.250;2022-12-07T04:54:07;101568.63;;;5.81;78.72
13593;BME280;6867;50.998;4.250;2022-12-07T04:56:34;101566.47;;;5.84;78.68
13593;BME280;6867;50.998;4.250;2022-12-07T04:59:01;101568.66;;;5.89;78.30
13593;BME280;6867;50.998;4.250;2022-12-07T05:01:29;101565.72;;;5.92;78.83
13593;BME280;6867;50.998;4.250;2022-12-07T05:03:56;101561.50;;;5.89;78.38
13593;BME280;6867;50.998;4.250;2022-12-07T05:06:22;101565.50;;;5.85;78.55
13593;BME280;6867;50.998;4.250;2022-12-07T05:08:49;101561.94;;;5.77;78.23
13593;BME280;6867;50.998;4.250;2022-12-07T05:11:18;101569.78;;;5.78;78.48
13593;BME280;6867;50.998;4.250;2022-12-07T05:13:58;101567.59;;;5.73;78.58
13593;BME280;6867;50.998;4.250;2022-12-07T05:16:25;101580.75;;;5.75;78.88
13593;BME280;6867;50.998;4.250;2022-12-07T05:18:52;101586.59;;;5.96;78.88
13593;BME280;6867;50.998;4.250;2022-12-07T05:21:18;101590.50;;;6.10;79.14
13593;BME280;6867;50.998;4.250;2022-12-07T05:23:45;101589.41;;;6.21;79.53
13593;BME280;6867;50.998;4.250;2022-12-07T05:26:12;101590.44;;;6.28;79.08
13593;BME280;6867;50.998;4.250;2022-12-07T05:28:40;101589.78;;;6.34;79.30
13593;BME280;6867;50.998;4.250;2022-12-07T05:31:07;101588.13;;;6.33;79.06
13593;BME280;6867;50.998;4.250;2022-12-07T05:33:34;101592.97;;;6.38;79.44
13593;BME280;6867;50.998;4.250;2022-12-07T05:36:01;101601.50;;;6.41;79.78
13593;BME280;6867;50.998;4.250;2022-12-07T05:38:31;101597.16;;;6.40;79.59
13593;BME280;6867;50.998;4.250;2022-12-07T05:41:00;101591.03;;;6.48;79.42
13593;BME280;6867;50.998;4.250;2022-12-07T05:43:27;101588.81;;;6.43;78.93
13593;BME280;6867;50.998;4.250;2022-12-07T05:45:54;101595.69;;;6.46;79.33
13593;BME280;6867;50.998;4.250;2022-12-07T05:48:21;101605.06;;;6.58;79.73
13593;BME280;6867;50.998;4.250;2022-12-07T05:50:48;101602.38;;;6.50;79.36
13593;BME280;6867;50.998;4.250;2022-12-07T05:53:15;101591.34;;;6.45;80.06
13593;BME280;6867;50.998;4.250;2022-12-07T05:55:42;101587.22;;;6.59;79.30
13593;BME280;6867;50.998;4.250;2022-12-07T05:58:09;101569.53;;;6.58;79.05
13593;BME280;6867;50.998;4.250;2022-12-07T06:00:55;101565.56;;;6.62;79.16
13593;BME280;6867;50.998;4.250;2022-12-07T06:03:22;101575.00;;;6.40;79.73
13593;BME280;6867;50.998;4.250;2022-12-07T06:05:49;101577.06;;;6.20;80.09
13593;BME280;6867;50.998;4.250;2022-12-07T06:08:16;101583.31;;;6.03;80.59
13593;BME280;6867;50.998;4.250;2022-12-07T06:10:42;101587.94;;;6.01;81.16
13593;BME280;6867;50.998;4.250;2022-12-07T06:13:09;101585.50;;;5.89;81.17
13593;BME280;6867;50.998;4.250;2022-12-07T06:15:35;101597.66;;;5.84;81.24
13593;BME280;6867;50.998;4.250;2022-12-07T06:18:04;101596.28;;;5.80;81.68
13593;BME280;6867;50.998;4.250;2022-12-07T06:20:30;101597.50;;;5.85;82.17
13593;BME280;6867;50.998;4.250;2022-12-07T06:22:57;101588.88;;;5.91;81.43
13593;BME280;6867;50.998;4.250;2022-12-07T06:25:24;101593.75;;;5.96;81.60
13593;BME280;6867;50.998;4.250;2022-12-07T06:27:51;101590.66;;;6.09;82.27
13593;BME280;6867;50.998;4.250;2022-12-07T06:30:17;101591.66;;;6.08;81.38
13593;BME280;6867;50.998;4.250;2022-12-07T06:32:44;101591.84;;;6.06;81.99
13593;BME280;6867;50.998;4.250;2022-12-07T06:35:12;101591.66;;;6.08;81.98
13593;BME280;6867;50.998;4.250;2022-12-07T06:37:39;101599.66;;;6.08;81.57
13593;BME280;6867;50.998;4.250;2022-12-07T06:40:06;101594.78;;;6.29;81.41
13593;BME280;6867;50.998;4.250;2022-12-07T06:42:33;101594.78;;;6.29;81.49
13593;BME280;6867;50.998;4.250;2022-12-07T06:45:00;101598.44;;;6.28;81.35
13593;BME280;6867;50.998;4.250;2022-12-07T06:47:27;101592.81;;;6.31;81.13
13593;BME280;6867;50.998;4.250;2022-12-07T06:49:53;101586.50;;;6.14;80.48
13593;BME280;6867;50.998;4.250;2022-12-07T06:52:21;101585.72;;;6.22;80.83
13593;BME280;6867;50.998;4.250;2022-12-07T06:54:48;101599.66;;;6.08;80.72
13593;BME280;6867;50.998;4.250;2022-12-07T06:57:15;101601.22;;;6.18;80.43
13593;BME280;6867;50.998;4.250;2022-12-07T06:59:42;101600.06;;;6.21;80.65
13593;BME280;6867;50.998;4.250;2022-12-07T07:02:09;101595.72;;;6.20;80.30
13593;BME280;6867;50.998;4.250;2022-12-07T07:04:36;101603.75;;;6.20;80.48
13593;BME280;6867;50.998;4.250;2022-12-07T07:07:02;101602.13;;;6.27;80.69
13593;BME280;6867;50.998;4.250;2022-12-07T07:09:31;101609.78;;;6.30;80.49
13593;BME280;6867;50.998;4.250;2022-12-07T07:11:57;101608.06;;;6.21;80.83
13593;BME280;6867;50.998;4.250;2022-12-07T07:14:24;101600.53;;;6.16;80.45
13593;BME280;6867;50.998;4.250;2022-12-07T07:16:50;101590.66;;;6.09;80.52
13593;BME280;6867;50.998;4.250;2022-12-07T07:19:17;101573.72;;;5.92;80.25
13593;BME280;6867;50.998;4.250;2022-12-07T07:21:44;101579.44;;;5.79;80.06
13593;BME280;6867;50.998;4.250;2022-12-07T07:24:10;101576.38;;;5.66;79.61
13593;BME280;6867;50.998;4.250;2022-12-07T07:26:38;101572.63;;;5.59;79.52
13593;BME280;6867;50.998;4.250;2022-12-07T07:29:05;101573.56;;;5.49;80.34
13593;BME280;6867;50.998;4.250;2022-12-07T07:31:32;101582.25;;;5.52;80.30
13593;BME280;6867;50.998;4.250;2022-12-07T07:34:00;101583.25;;;5.50;79.93
13593;BME280;6867;50.998;4.250;2022-12-07T07:36:27;101582.69;;;5.47;79.93
13593;BME280;6867;50.998;4.250;2022-12-07T07:38:54;101572.69;;;5.41;80.29
13593;BME280;6867;50.998;4.250;2022-12-07T07:41:20;101575.09;;;5.34;80.59
13593;BME280;6867;50.998;4.250;2022-12-07T07:43:48;101574.06;;;5.27;80.31
13593;BME280;6867;50.998;4.250;2022-12-07T07:46:15;101582.03;;;5.09;80.98
13593;BME280;6867;50.998;4.250;2022-12-07T07:48:42;101587.44;;;4.99;80.71
13593;BME280;6867;50.998;4.250;2022-12-07T07:51:09;101587.00;;;5.04;81.12
13593;BME280;6867;50.998;4.250;2022-12-07T07:53:35;101594.59;;;5.17;80.33
13593;BME280;6867;50.998;4.250;2022-12-07T07:56:02;101587.44;;;4.99;81.24
13593;BME280;6867;50.998;4.250;2022-12-07T07:58:29;101591.88;;;5.09;81.39
13593;BME280;6867;50.998;4.250;2022-12-07T08:01:03;101604.66;;;5.23;81.54
13593;BME280;6867;50.998;4.250;2022-12-07T08:03:30;101593.94;;;5.33;80.65
13593;BME280;6867;50.998;4.250;2022-12-07T08:05:57;101600.31;;;5.40;81.27
13593;BME280;6867;50.998;4.250;2022-12-07T08:08:23;101602.53;;;5.44;80.04
13593;BME280;6867;50.998;4.250;2022-12-07T08:10:50;101604.78;;;5.57;80.21
13593;BME280;6867;50.998;4.250;2022-12-07T08:13:17;101610.38;;;5.72;80.38
13593;BME280;6867;50.998;4.250;2022-12-07T08:15:46;101607.16;;;5.86;81.23
13593;BME280;6867;50.998;4.250;2022-12-07T08:18:15;101614.09;;;5.97;81.14
13593;BME280;6867;50.998;4.250;2022-12-07T08:20:42;101622.47;;;6.02;81.42
13593;BME280;6867;50.998;4.250;2022-12-07T08:23:09;101624.03;;;6.13;81.61
13593;BME280;6867;50.998;4.250;2022-12-07T08:25:36;101632.81;;;6.31;81.87
13593;BME280;6867;50.998;4.250;2022-12-07T08:28:03;101632.88;;;6.47;81.81
13593;BME280;6867;50.998;4.250;2022-12-07T08:30:31;101641.59;;;6.49;81.83
13593;BME280;6867;50.998;4.250;2022-12-07T08:32:58;101638.94;;;6.58;82.02
13593;BME280;6867;50.998;4.250;2022-12-07T08:35:26;101636.84;;;6.69;81.82
13593;BME280;6867;50.998;4.250;2022-12-07T08:37:52;101647.66;;;6.68;81.79
13593;BME280;6867;50.998;4.250;2022-12-07T08:40:20;101650.06;;;6.87;81.89
13593;BME280;6867;50.998;4.250;2022-12-07T08:42:49;101648.94;;;7.06;81.73
13593;BME280;6867;50.998;4.250;2022-12-07T08:45:17;101651.16;;;7.11;82.06
13593;BME280;6867;50.998;4.250;2022-12-07T08:47:48;101663.19;;;7.15;82.27
13593;BME280;6867;50.998;4.250;2022-12-07T08:50:17;101661.53;;;7.30;82.57
13593;BME280;6867;50.998;4.250;2022-12-07T08:52:48;101655.38;;;7.46;81.59
13593;BME280;6867;50.998;4.250;2022-12-07T08:55:16;101656.22;;;7.46;81.52
13593;BME280;6867;50.998;4.250;2022-12-07T08:57:42;101656.41;;;7.53;81.44
13593;BME280;6867;50.998;4.250;2022-12-07T09:00:10;101659.91;;;7.62;81.69
13593;BME280;6867;50.998;4.250;2022-12-07T09:02:38;101646.03;;;7.58;81.89
13593;BME280;6867;50.998;4.250;2022-12-07T09:05:05;101651.22;;;7.68;82.16
13593;BME280;6867;50.998;4.250;2022-12-07T09:07:34;101660.03;;;7.44;81.78
13593;BME280;6867;50.998;4.250;2022-12-07T09:10:03;101659.56;;;7.48;82.29
13593;BME280;6867;50.998;4.250;2022-12-07T09:12:30;101661.75;;;7.61;81.74
13593;BME280;6867;50.998;4.250;2022-12-07T09:14:56;101655.56;;;7.61;81.52
13593;BME280;6867;50.998;4.250;2022-12-07T09:17:23;101660.06;;;7.85;82.17
13593;BME280;6867;50.998;4.250;2022-12-07T09:19:50;101659.72;;;8.04;81.98
13593;BME280;6867;50.998;4.250;2022-12-07T09:22:17;101664.06;;;8.05;82.52
13593;BME280;6867;50.998;4.250;2022-12-07T09:24:44;101655.50;;;8.18;81.97
13593;BME280;6867;50.998;4.250;2022-12-07T09:27:12;101650.97;;;8.27;81.72
13593;BME280;6867;50.998;4.250;2022-12-07T09:29:39;101652.31;;;8.31;82.04
13593;BME280;6867;50.998;4.250;2022-12-07T09:32:05;101657.13;;;8.52;81.46
13593;BME280;6867;50.998;4.250;2022-12-07T09:34:32;101650.50;;;8.79;81.77
13593;BME280;6867;50.998;4.250;2022-12-07T09:37:00;101651.31;;;8.87;81.28
13593;BME280;6867;50.998;4.250;2022-12-07T09:39:28;101641.91;;;8.91;80.61
13593;BME280;6867;50.998;4.250;2022-12-07T09:41:56;101642.53;;;8.93;81.22
13593;BME280;6867;50.998;4.250;2022-12-07T09:44:26;101627.88;;;8.81;80.44
13593;BME280;6867;50.998;4.250;2022-12-07T09:46:53;101639.53;;;8.96;81.18
13593;BME280;6867;50.998;4.250;2022-12-07T09:49:23;101639.38;;;9.21;80.79
13593;BME280;6867;50.998;4.250;2022-12-07T09:52:00;101620.38;;;9.08;79.48
13593;BME280;6867;50.998;4.250;2022-12-07T09:54:28;101604.41;;;8.91;78.64
13593;BME280;6867;50.998;4.250;2022-12-07T09:56:55;101609.13;;;8.81;79.23
13593;BME280;6867;50.998;4.250;2022-12-07T09:59:22;101607.31;;;8.73;78.90
13593;BME280;6867;50.998;4.250;2022-12-07T10:01:50;101624.88;;;8.76;80.09
13593;BME280;6867;50.998;4.250;2022-12-07T10:04:21;101609.38;;;8.63;80.05
13593;BME280;6867;50.998;4.250;2022-12-07T10:06:48;101619.16;;;8.87;79.68
13593;BME280;6867;50.998;4.250;2022-12-07T10:09:18;101613.44;;;8.90;79.45
13593;BME280;6867;50.998;4.250;2022-12-07T10:12:02;101601.16;;;8.65;79.26
13593;BME280;6867;50.998;4.250;2022-12-07T10:14:31;101597.03;;;8.54;79.61
13593;BME280;6867;50.998;4.250;2022-12-07T10:16:59;101595.31;;;8.06;78.98
13593;BME280;6867;50.998;4.250;2022-12-07T10:19:28;101606.19;;;8.12;79.89
13593;BME280;6867;50.998;4.250;2022-12-07T10:22:04;101598.19;;;7.96;79.72
13593;BME280;6867;50.998;4.250;2022-12-07T10:24:31;101591.84;;;7.89;80.11
13593;BME280;6867;50.998;4.250;2022-12-07T10:26:58;101600.19;;;7.86;80.15
13593;BME280;6867;50.998;4.250;2022-12-07T10:29:29;101608.72;;;7.89;80.46
13593;BME280;6867;50.998;4.250;2022-12-07T10:31:59;101608.22;;;7.94;80.14
13593;BME280;6867;50.998;4.250;2022-12-07T10:34:28;101611.53;;;8.12;80.68
13593;BME280;6867;50.998;4.250;2022-12-07T10:37:14;101607.06;;;7.88;81.43
13593;BME280;6867;50.998;4.250;2022-12-07T10:39:42;101613.41;;;7.95;81.30
13593;BME280;6867;50.998;4.250;2022-12-07T10:42:16;101611.69;;;8.11;81.45
13593;BME280;6867;50.998;4.250;2022-12-07T10:44:43;101607.03;;;8.13;80.73
13593;BME280;6867;50.998;4.250;2022-12-07T10:47:31;101590.16;;;8.04;80.87
13593;BME280;6867;50.998;4.250;2022-12-07T10:50:28;101594.34;;;7.98;80.77
13593;BME280;6867;50.998;4.250;2022-12-07T10:53:09;101585.66;;;7.96;80.76
13593;BME280;6867;50.998;4.250;2022-12-07T10:55:53;101585.63;;;8.05;79.98
13593;BME280;6867;50.998;4.250;2022-12-07T10:58:34;101580.56;;;8.18;80.46
13593;BME280;6867;50.998;4.250;2022-12-07T11:01:11;101576.88;;;8.19;80.29
13593;BME280;6867;50.998;4.250;2022-12-07T11:03:55;101579.22;;;8.22;80.98
13593;BME280;6867;50.998;4.250;2022-12-07T11:06:33;101569.31;;;8.39;80.80
13593;BME280;6867;50.998;4.250;2022-12-07T11:09:16;101575.34;;;8.41;80.85
13593;BME280;6867;50.998;4.250;2022-12-07T11:11:51;101565.28;;;8.35;80.73
13593;BME280;6867;50.998;4.250;2022-12-07T11:14:26;101566.94;;;8.44;81.29
13593;BME280;6867;50.998;4.250;2022-12-07T11:16:57;101568.81;;;8.75;81.07
13593;BME280;6867;50.998;4.250;2022-12-07T11:19:42;101558.72;;;9.08;79.82
13593;BME280;6867;50.998;4.250;2022-12-07T11:22:22;101542.28;;;9.11;79.07
13593;BME280;6867;50.998;4.250;2022-12-07T11:24:56;101547.72;;;9.40;79.01
13593;BME280;6867;50.998;4.250;2022-12-07T11:27:35;101539.28;;;9.66;78.50
13593;BME280;6867;50.998;4.250;2022-12-07T11:30:13;101538.03;;;9.92;77.74
13593;BME280;6867;50.998;4.250;2022-12-07T11:32:58;101532.56;;;10.00;78.25
13593;BME280;6867;50.998;4.250;2022-12-07T11:35:36;101519.50;;;9.97;77.52
13593;BME280;6867;50.998;4.250;2022-12-07T11:38:11;101507.91;;;9.52;77.52
13593;BME280;6867;50.998;4.250;2022-12-07T11:40:40;101528.97;;;9.40;78.76
13593;BME280;6867;50.998;4.250;2022-12-07T11:43:15;101521.22;;;9.45;78.31
13593;BME280;6867;50.998;4.250;2022-12-07T11:45:45;101531.56;;;9.48;78.08
13593;BME280;6867;50.998;4.250;2022-12-07T11:48:17;101504.69;;;9.71;77.41
13593;BME280;6867;50.998;4.250;2022-12-07T11:50:51;101502.75;;;9.80;77.71
13593;BME280;6867;50.998;4.250;2022-12-07T11:53:21;101494.63;;;9.88;77.54
13593;BME280;6867;50.998;4.250;2022-12-07T11:55:52;101496.19;;;9.97;76.54
13593;BME280;6867;50.998;4.250;2022-12-07T11:58:35;101504.44;;;10.26;77.30
13593;BME280;6867;50.998;4.250;2022-12-07T12:01:14;101495.16;;;9.98;77.39
13593;BME280;6867;50.998;4.250;2022-12-07T12:03:44;101495.63;;;9.87;76.92
13593;BME280;6867;50.998;4.250;2022-12-07T12:06:13;101489.97;;;9.97;76.23
13593;BME280;6867;50.998;4.250;2022-12-07T12:08:43;101486.72;;;10.16;77.05
13593;BME280;6867;50.998;4.250;2022-12-07T12:11:22;101472.03;;;9.83;77.12
13593;BME280;6867;50.998;4.250;2022-12-07T12:14:15;101458.91;;;9.73;76.07
13593;BME280;6867;50.998;4.250;2022-12-07T12:16:57;101455.22;;;9.74;75.67
13593;BME280;6867;50.998;4.250;2022-12-07T12:19:32;101447.50;;;9.56;76.22
13593;BME280;6867;50.998;4.250;2022-12-07T12:22:10;101447.25;;;9.95;76.09
13593;BME280;6867;50.998;4.250;2022-12-07T12:24:40;101447.19;;;10.10;74.96
13593;BME280;6867;50.998;4.250;2022-12-07T12:27:09;101435.44;;;10.26;73.89
13593;BME280;6867;50.998;4.250;2022-12-07T12:29:42;101427.41;;;10.69;73.51
13593;BME280;6867;50.998;4.250;2022-12-07T12:32:16;101432.31;;;11.08;73.26
13593;BME280;6867;50.998;4.250;2022-12-07T12:35:00;101388.78;;;10.98;70.95
13593;BME280;6867;50.998;4.250;2022-12-07T12:37:42;101378.66;;;10.72;70.78
13593;BME280;6867;50.998;4.250;2022-12-07T12:46:47;101358.06;;;10.79;69.90
13593;BME280;6867;50.998;4.250;2022-12-07T12:49:38;101344.94;;;10.41;69.88
13593;BME280;6867;50.998;4.250;2022-12-07T12:55:19;101380.41;;;10.58;70.60
13593;BME280;6867;50.998;4.250;2022-12-07T12:57:52;101361.19;;;10.18;70.49
13593;BME280;6867;50.998;4.250;2022-12-07T13:00:39;101369.72;;;10.07;70.63
13593;BME280;6867;50.998;4.250;2022-12-07T13:03:21;101377.28;;;10.18;70.91
13593;BME280;6867;50.998;4.250;2022-12-07T13:06:18;101380.53;;;10.29;70.52
13593;BME280;6867;50.998;4.250;2022-12-07T13:08:45;101369.88;;;10.20;70.77
13593;BME280;6867;50.998;4.250;2022-12-07T13:11:18;101362.22;;;10.17;70.67
13593;BME280;6867;50.998;4.250;2022-12-07T13:13:46;101356.38;;;10.14;70.85
13593;BME280;6867;50.998;4.250;2022-12-07T13:16:39;101350.75;;;10.45;70.67
13593;BME280;6867;50.998;4.250;2022-12-07T13:22:40;101336.88;;;11.32;69.08
13593;BME280;6867;50.998;4.250;2022-12-07T13:25:11;101288.91;;;11.29;67.40
13593;BME280;6867;50.998;4.250;2022-12-07T13:27:41;101276.78;;;11.05;66.71
13593;BME280;6867;50.998;4.250;2022-12-07T13:30:14;101277.69;;;10.84;66.52
13593;BME280;6867;50.998;4.250;2022-12-07T13:32:42;101291.19;;;10.20;67.37
13593;BME280;6867;50.998;4.250;2022-12-07T13:35:29;101312.25;;;9.29;68.88
13593;BME280;6867;50.998;4.250;2022-12-07T13:37:56;101345.78;;;9.10;69.76
13593;BME280;6867;50.998;4.250;2022-12-07T13:40:23;101364.53;;;9.10;71.12
13593;BME280;6867;50.998;4.250;2022-12-07T13:42:58;101373.97;;;8.91;71.55
13593;BME280;6867;50.998;4.250;2022-12-07T13:45:27;101384.59;;;9.00;72.75